createdAt,value
2017-10-09T00:00:23.398Z,1009.9
2017-10-09T00:01:25.822Z,1010
2017-10-09T00:02:28.243Z,1010
2017-10-09T00:03:31.010Z,1010
2017-10-09T00:04:33.431Z,1010
2017-10-09T00:05:35.861Z,1010
2017-10-09T00:06:38.289Z,1010
2017-10-09T00:07:40.718Z,1010
2017-10-09T00:08:43.123Z,1010
2017-10-09T00:09:45.544Z,1010
2017-10-09T00:10:47.968Z,1010
2017-10-09T00:11:50.388Z,1010
2017-10-09T00:12:52.804Z,1010
2017-10-09T00:13:55.226Z,1010
2017-10-09T00:14:57.649Z,1010
2017-10-09T00:16:00.082Z,1010
2017-10-09T00:17:02.506Z,1010
2017-10-09T00:18:05.265Z,1010
2017-10-09T00:19:07.699Z,1010
2017-10-09T00:20:10.116Z,1010
2017-10-09T00:21:12.538Z,1010
2017-10-09T00:22:14.959Z,1010
2017-10-09T00:23:17.376Z,1010
2017-10-09T00:24:20.138Z,1010
2017-10-09T00:25:22.557Z,1010
2017-10-09T00:26:24.966Z,1010
2017-10-09T00:27:27.406Z,1010
2017-10-09T00:28:29.830Z,1010
2017-10-09T00:29:32.251Z,1010
2017-10-09T00:30:34.674Z,1010
2017-10-09T00:31:37.099Z,1010
2017-10-09T00:32:39.506Z,1010
2017-10-09T00:33:41.934Z,1010
2017-10-09T00:34:44.359Z,1010
2017-10-09T00:35:46.775Z,1010
2017-10-09T00:36:49.206Z,1010
2017-10-09T00:37:51.628Z,1010
2017-10-09T00:38:54.042Z,1010.1
2017-10-09T00:39:56.475Z,1010
2017-10-09T00:40:58.891Z,1010
2017-10-09T00:42:01.317Z,1010
2017-10-09T00:43:03.741Z,1010
2017-10-09T00:44:06.511Z,1010
2017-10-09T00:45:08.934Z,1010
2017-10-09T00:46:11.357Z,1010.1
2017-10-09T00:47:13.773Z,1010
2017-10-09T00:48:16.538Z,1010.1
2017-10-09T00:49:18.962Z,1010.1
2017-10-09T00:50:21.392Z,1010.1
2017-10-09T00:51:23.804Z,1010.1
2017-10-09T00:52:26.221Z,1010.1
2017-10-09T00:53:28.648Z,1010.1
2017-10-09T00:54:31.069Z,1010.1
2017-10-09T00:55:33.493Z,1010.1
2017-10-09T00:56:35.919Z,1010
2017-10-09T00:57:38.346Z,1010.1
2017-10-09T00:58:40.778Z,1010.1
2017-10-09T00:59:43.208Z,1010.1
2017-10-09T01:00:45.615Z,1010
2017-10-09T01:01:48.049Z,1010
2017-10-09T01:02:50.467Z,1010
2017-10-09T01:03:52.883Z,1010
2017-10-09T01:04:55.306Z,1010
2017-10-09T01:05:57.727Z,1010.1
2017-10-09T01:07:00.154Z,1010.1
2017-10-09T01:08:02.571Z,1010.1
2017-10-09T01:09:04.996Z,1010.1
2017-10-09T01:10:07.421Z,1010.1
2017-10-09T01:11:09.844Z,1010.1
2017-10-09T01:12:12.272Z,1010.1
2017-10-09T01:13:14.687Z,1010
2017-10-09T01:14:17.104Z,1010
2017-10-09T01:15:19.531Z,1010
2017-10-09T01:16:22.281Z,1010
2017-10-09T01:17:24.716Z,1010
2017-10-09T01:18:27.133Z,1010
2017-10-09T01:19:29.550Z,1010
2017-10-09T01:20:31.974Z,1010
2017-10-09T01:21:34.391Z,1010
2017-10-09T01:22:36.807Z,1009.9
2017-10-09T01:23:39.244Z,1009.9
2017-10-09T01:24:41.650Z,1010
2017-10-09T01:25:44.069Z,1010
2017-10-09T01:26:46.501Z,1009.9
2017-10-09T01:27:48.918Z,1009.9
2017-10-09T01:28:51.345Z,1009.9
2017-10-09T01:29:53.770Z,1009.9
2017-10-09T01:30:56.203Z,1010
2017-10-09T01:31:58.609Z,1010
2017-10-09T01:33:01.034Z,1010
2017-10-09T01:34:03.456Z,1009.9
2017-10-09T01:35:05.871Z,1009.9
2017-10-09T01:36:08.297Z,1009.9
2017-10-09T01:37:11.058Z,1009.9
2017-10-09T01:38:13.820Z,1009.9
2017-10-09T01:39:16.250Z,1009.8
2017-10-09T01:40:18.678Z,1009.8
2017-10-09T01:41:21.091Z,1009.8
2017-10-09T01:42:23.513Z,1009.8
2017-10-09T01:43:25.936Z,1009.8
2017-10-09T01:44:28.359Z,1009.8
2017-10-09T01:45:30.780Z,1009.7
2017-10-09T01:46:33.194Z,1009.7
2017-10-09T01:47:35.611Z,1009.8
2017-10-09T01:48:38.038Z,1009.8
2017-10-09T01:49:40.450Z,1009.8
2017-10-09T01:50:42.860Z,1009.8
2017-10-09T01:51:45.286Z,1009.8
2017-10-09T01:52:47.711Z,1009.7
2017-10-09T01:53:50.133Z,1009.7
2017-10-09T01:54:52.898Z,1009.8
2017-10-09T01:55:55.319Z,1009.8
2017-10-09T01:56:57.742Z,1009.7
2017-10-09T01:58:00.523Z,1009.7
2017-10-09T01:59:02.935Z,1009.7
2017-10-09T02:00:05.356Z,1009.8
2017-10-09T02:01:07.778Z,1009.7
2017-10-09T02:02:10.196Z,1009.7
2017-10-09T02:03:12.621Z,1009.7
2017-10-09T02:04:15.040Z,1009.7
2017-10-09T02:05:17.468Z,1009.7
2017-10-09T02:06:19.895Z,1009.7
2017-10-09T02:07:22.298Z,1009.8
2017-10-09T02:08:24.725Z,1009.7
2017-10-09T02:09:27.139Z,1009.7
2017-10-09T02:10:29.567Z,1009.7
2017-10-09T02:11:31.985Z,1009.7
2017-10-09T02:12:34.405Z,1009.7
2017-10-09T02:13:36.825Z,1009.7
2017-10-09T02:14:39.258Z,1009.7
2017-10-09T02:15:41.674Z,1009.7
2017-10-09T02:16:44.097Z,1009.7
2017-10-09T02:17:46.515Z,1009.7
2017-10-09T02:18:48.929Z,1009.7
2017-10-09T02:19:51.354Z,1009.7
2017-10-09T02:20:53.782Z,1009.7
2017-10-09T02:21:56.193Z,1009.7
2017-10-09T02:22:58.626Z,1009.7
2017-10-09T02:24:01.047Z,1009.7
2017-10-09T02:25:03.477Z,1009.7
2017-10-09T02:26:05.894Z,1009.7
2017-10-09T02:27:08.687Z,1009.7
2017-10-09T02:28:11.102Z,1009.7
2017-10-09T02:29:13.876Z,1009.7
2017-10-09T02:30:16.300Z,1009.8
2017-10-09T02:31:19.045Z,1009.7
2017-10-09T02:32:21.466Z,1009.7
2017-10-09T02:33:23.899Z,1009.7
2017-10-09T02:34:26.660Z,1009.7
2017-10-09T02:35:29.087Z,1009.7
2017-10-09T02:36:31.505Z,1009.7
2017-10-09T02:37:33.918Z,1009.7
2017-10-09T02:38:36.346Z,1009.7
2017-10-09T02:39:38.773Z,1009.7
2017-10-09T02:40:41.183Z,1009.7
2017-10-09T02:41:43.607Z,1009.8
2017-10-09T02:42:46.384Z,1009.8
2017-10-09T02:43:49.166Z,1009.7
2017-10-09T02:44:52.283Z,1009.7
2017-10-09T02:45:55.035Z,1009.7
2017-10-09T02:46:57.451Z,1009.7
2017-10-09T02:47:59.874Z,1009.7
2017-10-09T02:49:02.302Z,1009.7
2017-10-09T02:50:04.723Z,1009.8
2017-10-09T02:51:07.143Z,1009.7
2017-10-09T02:52:09.568Z,1009.8
2017-10-09T02:53:12.674Z,1009.8
2017-10-09T02:54:15.100Z,1009.8
2017-10-09T02:55:17.507Z,1009.8
2017-10-09T02:56:19.922Z,1009.8
2017-10-09T02:57:22.344Z,1009.8
2017-10-09T02:58:24.765Z,1009.8
2017-10-09T02:59:27.191Z,1009.8
2017-10-09T03:00:29.614Z,1009.8
2017-10-09T03:01:32.041Z,1009.8
2017-10-09T03:02:34.462Z,1009.8
2017-10-09T03:03:36.873Z,1009.8
2017-10-09T03:04:39.312Z,1009.8
2017-10-09T03:05:41.732Z,1009.7
2017-10-09T03:06:44.149Z,1009.8
2017-10-09T03:07:46.575Z,1009.8
2017-10-09T03:08:48.993Z,1009.8
2017-10-09T03:09:51.420Z,1009.8
2017-10-09T03:10:53.848Z,1009.8
2017-10-09T03:11:56.262Z,1009.8
2017-10-09T03:12:58.683Z,1009.8
2017-10-09T03:14:01.118Z,1009.7
2017-10-09T03:15:03.531Z,1009.7
2017-10-09T03:16:06.666Z,1009.7
2017-10-09T03:17:09.088Z,1009.7
2017-10-09T03:18:11.509Z,1009.7
2017-10-09T03:19:13.944Z,1009.7
2017-10-09T03:20:16.370Z,1009.7
2017-10-09T03:21:18.783Z,1009.7
2017-10-09T03:22:21.204Z,1009.8
2017-10-09T03:23:23.625Z,1009.7
2017-10-09T03:24:26.046Z,1009.7
2017-10-09T03:25:28.466Z,1009.7
2017-10-09T03:26:30.885Z,1009.7
2017-10-09T03:27:33.300Z,1009.8
2017-10-09T03:28:35.737Z,1009.7
2017-10-09T03:29:38.166Z,1009.8
2017-10-09T03:30:40.574Z,1009.8
2017-10-09T03:31:43.002Z,1009.8
2017-10-09T03:32:45.765Z,1009.8
2017-10-09T03:33:48.188Z,1009.8
2017-10-09T03:34:50.615Z,1009.8
2017-10-09T03:35:53.038Z,1009.8
2017-10-09T03:36:55.457Z,1009.8
2017-10-09T03:37:57.888Z,1009.8
2017-10-09T03:39:00.310Z,1009.8
2017-10-09T03:40:02.733Z,1009.8
2017-10-09T03:41:05.155Z,1009.8
2017-10-09T03:42:07.579Z,1009.8
2017-10-09T03:43:10.001Z,1009.8
2017-10-09T03:44:12.772Z,1009.8
2017-10-09T03:45:15.193Z,1009.8
2017-10-09T03:46:17.624Z,1009.8
2017-10-09T03:47:20.046Z,1009.8
2017-10-09T03:48:22.465Z,1009.8
2017-10-09T03:49:24.887Z,1009.8
2017-10-09T03:50:27.306Z,1009.8
2017-10-09T03:51:29.715Z,1009.8
2017-10-09T03:52:32.138Z,1009.8
2017-10-09T03:53:34.555Z,1009.8
2017-10-09T03:54:36.968Z,1009.8
2017-10-09T03:55:39.737Z,1009.8
2017-10-09T03:56:42.154Z,1009.8
2017-10-09T03:57:44.576Z,1009.8
2017-10-09T03:58:47.005Z,1009.8
2017-10-09T03:59:49.423Z,1009.8
2017-10-09T04:00:51.839Z,1009.8
2017-10-09T04:01:54.267Z,1009.8
2017-10-09T04:02:56.690Z,1009.8
2017-10-09T04:03:59.106Z,1009.8
2017-10-09T04:05:01.531Z,1009.8
2017-10-09T04:06:03.960Z,1009.8
2017-10-09T04:07:06.378Z,1009.8
2017-10-09T04:08:09.139Z,1009.8
2017-10-09T04:09:11.561Z,1009.8
2017-10-09T04:10:13.979Z,1009.8
2017-10-09T04:11:16.411Z,1009.8
2017-10-09T04:12:18.821Z,1009.8
2017-10-09T04:13:21.244Z,1009.7
2017-10-09T04:14:23.658Z,1009.8
2017-10-09T04:15:26.078Z,1009.8
2017-10-09T04:16:28.506Z,1009.8
2017-10-09T04:17:30.933Z,1009.7
2017-10-09T04:18:33.338Z,1009.8
2017-10-09T04:19:35.759Z,1009.7
2017-10-09T04:20:38.178Z,1009.8
2017-10-09T04:21:40.598Z,1009.8
2017-10-09T04:22:43.363Z,1009.8
2017-10-09T04:23:45.785Z,1009.8
2017-10-09T04:24:48.205Z,1009.8
2017-10-09T04:25:50.637Z,1009.7
2017-10-09T04:26:53.391Z,1009.8
2017-10-09T04:27:55.815Z,1009.8
2017-10-09T04:28:58.225Z,1009.8
2017-10-09T04:30:00.653Z,1009.8
2017-10-09T04:31:03.075Z,1009.8
2017-10-09T04:32:05.497Z,1009.8
2017-10-09T04:33:07.923Z,1009.8
2017-10-09T04:34:10.351Z,1009.8
2017-10-09T04:35:12.765Z,1009.8
2017-10-09T04:36:15.204Z,1009.8
2017-10-09T04:37:17.607Z,1009.8
2017-10-09T04:38:20.035Z,1009.8
2017-10-09T04:39:22.799Z,1009.8
2017-10-09T04:40:25.218Z,1009.8
2017-10-09T04:41:27.633Z,1009.8
2017-10-09T04:42:30.737Z,1009.8
2017-10-09T04:43:33.148Z,1009.7
2017-10-09T04:44:35.582Z,1009.8
2017-10-09T04:45:37.992Z,1009.8
2017-10-09T04:46:40.421Z,1009.8
2017-10-09T04:47:42.841Z,1009.8
2017-10-09T04:48:45.258Z,1009.8
2017-10-09T04:49:48.037Z,1009.8
2017-10-09T04:50:50.463Z,1009.7
2017-10-09T04:51:53.217Z,1009.8
2017-10-09T04:52:55.644Z,1009.7
2017-10-09T04:53:58.071Z,1009.7
2017-10-09T04:55:00.494Z,1009.7
2017-10-09T04:56:03.258Z,1009.7
2017-10-09T04:57:05.681Z,1009.6
2017-10-09T04:58:08.101Z,1009.7
2017-10-09T04:59:10.519Z,1009.6
2017-10-09T05:00:12.946Z,1009.6
2017-10-09T05:01:15.363Z,1009.6
2017-10-09T05:02:17.794Z,1009.6
2017-10-09T05:03:20.212Z,1009.7
2017-10-09T05:04:22.631Z,1009.6
2017-10-09T05:05:25.051Z,1009.6
2017-10-09T05:06:27.464Z,1009.6
2017-10-09T05:07:29.886Z,1009.7
2017-10-09T05:08:32.304Z,1009.7
2017-10-09T05:09:34.714Z,1009.7
2017-10-09T05:10:37.151Z,1009.6
2017-10-09T05:11:39.579Z,1009.6
2017-10-09T05:12:42.016Z,1009.6
2017-10-09T05:13:44.430Z,1009.6
2017-10-09T05:14:46.850Z,1009.7
2017-10-09T05:15:49.270Z,1009.6
2017-10-09T05:16:51.695Z,1009.6
2017-10-09T05:17:54.105Z,1009.6
2017-10-09T05:18:56.529Z,1009.6
2017-10-09T05:19:58.946Z,1009.6
2017-10-09T05:21:01.370Z,1009.6
2017-10-09T05:22:03.796Z,1009.7
2017-10-09T05:23:06.211Z,1009.6
2017-10-09T05:24:08.627Z,1009.6
2017-10-09T05:25:11.057Z,1009.6
2017-10-09T05:26:13.471Z,1009.6
2017-10-09T05:27:15.889Z,1009.6
2017-10-09T05:28:18.310Z,1009.5
2017-10-09T05:29:20.734Z,1009.6
2017-10-09T05:30:23.488Z,1009.6
2017-10-09T05:31:25.912Z,1009.6
2017-10-09T05:32:28.339Z,1009.6
2017-10-09T05:33:30.761Z,1009.6
2017-10-09T05:34:33.172Z,1009.6
2017-10-09T05:35:35.594Z,1009.6
2017-10-09T05:36:38.016Z,1009.6
2017-10-09T05:37:40.437Z,1009.6
2017-10-09T05:38:42.853Z,1009.6
2017-10-09T05:39:45.274Z,1009.6
2017-10-09T05:40:48.048Z,1009.6
2017-10-09T05:41:50.477Z,1009.6
2017-10-09T05:42:52.886Z,1009.7
2017-10-09T05:43:55.307Z,1009.7
2017-10-09T05:44:57.715Z,1009.7
2017-10-09T05:46:00.141Z,1009.7
2017-10-09T05:47:02.562Z,1009.7
2017-10-09T05:48:04.986Z,1009.7
2017-10-09T05:49:07.389Z,1009.7
2017-10-09T05:50:09.814Z,1009.7
2017-10-09T05:51:12.242Z,1009.7
2017-10-09T05:52:14.662Z,1009.7
2017-10-09T05:53:17.082Z,1009.6
2017-10-09T05:54:19.495Z,1009.6
2017-10-09T05:55:21.909Z,1009.6
2017-10-09T05:56:24.339Z,1009.6
2017-10-09T05:57:26.743Z,1009.5
2017-10-09T05:58:29.200Z,1009.5
2017-10-09T05:59:31.602Z,1009.5
2017-10-09T06:00:34.024Z,1009.5
2017-10-09T06:01:36.437Z,1009.5
2017-10-09T06:02:38.854Z,1009.5
2017-10-09T06:03:41.278Z,1009.5
2017-10-09T06:04:44.043Z,1009.6
2017-10-09T06:05:46.453Z,1009.5
2017-10-09T06:06:48.867Z,1009.5
2017-10-09T06:07:51.293Z,1009.6
2017-10-09T06:08:53.720Z,1009.6
2017-10-09T06:09:56.140Z,1009.5
2017-10-09T06:10:58.561Z,1009.6
2017-10-09T06:12:00.981Z,1009.6
2017-10-09T06:13:03.407Z,1009.6
2017-10-09T06:14:05.836Z,1009.6
2017-10-09T06:15:08.255Z,1009.6
2017-10-09T06:16:10.678Z,1009.6
2017-10-09T06:17:13.111Z,1009.6
2017-10-09T06:18:15.527Z,1009.6
2017-10-09T06:19:17.941Z,1009.6
2017-10-09T06:20:20.707Z,1009.6
2017-10-09T06:21:23.132Z,1009.6
2017-10-09T06:22:25.891Z,1009.6
2017-10-09T06:23:28.325Z,1009.6
2017-10-09T06:24:30.727Z,1009.6
2017-10-09T06:25:33.156Z,1009.6
2017-10-09T06:26:35.574Z,1009.6
2017-10-09T06:27:37.994Z,1009.6
2017-10-09T06:28:40.414Z,1009.6
2017-10-09T06:29:42.842Z,1009.6
2017-10-09T06:30:45.259Z,1009.6
2017-10-09T06:31:47.676Z,1009.6
2017-10-09T06:32:50.094Z,1009.6
2017-10-09T06:33:52.519Z,1009.6
2017-10-09T06:34:54.941Z,1009.6
2017-10-09T06:35:57.362Z,1009.6
2017-10-09T06:36:59.787Z,1009.6
2017-10-09T06:38:02.211Z,1009.5
2017-10-09T06:39:04.977Z,1009.6
2017-10-09T06:40:07.409Z,1009.6
2017-10-09T06:41:09.826Z,1009.6
2017-10-09T06:42:12.256Z,1009.6
2017-10-09T06:43:14.671Z,1009.6
2017-10-09T06:44:17.091Z,1009.6
2017-10-09T06:45:19.518Z,1009.6
2017-10-09T06:46:22.275Z,1009.6
2017-10-09T06:47:24.696Z,1009.6
2017-10-09T06:48:27.126Z,1009.5
2017-10-09T06:49:29.531Z,1009.6
2017-10-09T06:50:31.970Z,1009.6
2017-10-09T06:51:34.392Z,1009.6
2017-10-09T06:52:36.813Z,1009.5
2017-10-09T06:53:39.234Z,1009.6
2017-10-09T06:54:41.661Z,1009.6
2017-10-09T06:55:44.074Z,1009.6
2017-10-09T06:56:46.489Z,1009.6
2017-10-09T06:57:48.919Z,1009.6
2017-10-09T06:58:51.334Z,1009.6
2017-10-09T06:59:53.753Z,1009.6
2017-10-09T07:00:56.176Z,1009.6
2017-10-09T07:01:58.596Z,1009.7
2017-10-09T07:03:01.016Z,1009.7
2017-10-09T07:04:03.451Z,1009.7
2017-10-09T07:05:05.873Z,1009.7
2017-10-09T07:06:08.806Z,1009.7
2017-10-09T07:07:11.578Z,1009.7
2017-10-09T07:08:14.002Z,1009.8
2017-10-09T07:09:16.423Z,1009.7
2017-10-09T07:10:18.847Z,1009.7
2017-10-09T07:11:21.272Z,1009.7
2017-10-09T07:12:23.701Z,1009.7
2017-10-09T07:13:26.117Z,1009.7
2017-10-09T07:14:28.546Z,1009.7
2017-10-09T07:15:30.962Z,1009.7
2017-10-09T07:16:33.390Z,1009.8
2017-10-09T07:17:35.816Z,1009.7
2017-10-09T07:18:38.577Z,1009.7
2017-10-09T07:19:41.005Z,1009.7
2017-10-09T07:20:43.429Z,1009.7
2017-10-09T07:21:45.859Z,1009.7
2017-10-09T07:22:48.633Z,1009.8
2017-10-09T07:23:51.044Z,1009.8
2017-10-09T07:24:53.469Z,1009.7
2017-10-09T07:25:55.895Z,1009.8
2017-10-09T07:26:58.321Z,1009.8
2017-10-09T07:28:00.734Z,1009.8
2017-10-09T07:29:03.174Z,1009.7
2017-10-09T07:30:05.597Z,1009.8
2017-10-09T07:31:08.012Z,1009.8
2017-10-09T07:32:10.439Z,1009.7
2017-10-09T07:33:12.864Z,1009.7
2017-10-09T07:34:15.282Z,1009.7
2017-10-09T07:35:17.710Z,1009.7
2017-10-09T07:36:20.461Z,1009.7
2017-10-09T07:37:22.894Z,1009.7
2017-10-09T07:38:25.328Z,1009.7
2017-10-09T07:39:27.747Z,1009.7
2017-10-09T07:40:30.168Z,1009.7
2017-10-09T07:41:32.595Z,1009.6
2017-10-09T07:42:35.016Z,1009.6
2017-10-09T07:43:37.448Z,1009.7
2017-10-09T07:44:39.880Z,1009.6
2017-10-09T07:45:42.299Z,1009.6
2017-10-09T07:46:44.726Z,1009.6
2017-10-09T07:47:47.537Z,1009.6
2017-10-09T07:48:49.964Z,1009.6
2017-10-09T07:49:52.395Z,1009.6
2017-10-09T07:50:54.826Z,1009.6
2017-10-09T07:51:57.254Z,1009.6
2017-10-09T07:52:59.695Z,1009.7
2017-10-09T07:54:02.126Z,1009.7
2017-10-09T07:55:04.546Z,1009.6
2017-10-09T07:56:06.978Z,1009.7
2017-10-09T07:57:09.404Z,1009.6
2017-10-09T07:58:11.833Z,1009.6
2017-10-09T07:59:14.604Z,1009.6
2017-10-09T08:00:17.041Z,1009.6
2017-10-09T08:01:19.806Z,1009.6
2017-10-09T08:02:22.245Z,1009.6
2017-10-09T08:03:24.670Z,1009.6
2017-10-09T08:04:27.112Z,1009.7
2017-10-09T08:05:29.542Z,1009.6
2017-10-09T08:06:31.979Z,1009.6
2017-10-09T08:07:34.412Z,1009.6
2017-10-09T08:08:36.842Z,1009.7
2017-10-09T08:09:39.266Z,1009.7
2017-10-09T08:10:41.696Z,1009.7
2017-10-09T08:11:44.116Z,1009.7
2017-10-09T08:12:46.541Z,1009.7
2017-10-09T08:13:48.985Z,1009.7
2017-10-09T08:14:51.405Z,1009.6
2017-10-09T08:15:53.842Z,1009.6
2017-10-09T08:16:56.271Z,1009.7
2017-10-09T08:17:59.046Z,1009.7
2017-10-09T08:19:01.480Z,1009.7
2017-10-09T08:20:03.912Z,1009.7
2017-10-09T08:21:06.331Z,1009.7
2017-10-09T08:22:08.761Z,1009.6
2017-10-09T08:23:11.539Z,1009.5
2017-10-09T08:24:13.969Z,1009.6
2017-10-09T08:25:16.400Z,1009.7
2017-10-09T08:26:18.840Z,1009.6
2017-10-09T08:27:21.271Z,1009.6
2017-10-09T08:28:24.028Z,1009.7
2017-10-09T08:29:26.464Z,1009.7
2017-10-09T08:30:28.898Z,1009.7
2017-10-09T08:31:31.327Z,1009.7
2017-10-09T08:32:33.753Z,1009.7
2017-10-09T08:33:36.179Z,1009.7
2017-10-09T08:34:38.602Z,1009.7
2017-10-09T08:35:41.051Z,1009.7
2017-10-09T08:36:43.483Z,1009.8
2017-10-09T08:37:45.902Z,1009.7
2017-10-09T08:38:48.335Z,1009.7
2017-10-09T08:39:50.765Z,1009.7
2017-10-09T08:40:53.203Z,1009.7
2017-10-09T08:41:55.625Z,1009.7
2017-10-09T08:42:58.058Z,1009.7
2017-10-09T08:44:00.489Z,1009.8
2017-10-09T08:45:02.925Z,1009.7
2017-10-09T08:46:05.358Z,1009.8
2017-10-09T08:47:07.788Z,1009.8
2017-10-09T08:48:10.228Z,1009.7
2017-10-09T08:49:12.650Z,1009.7
2017-10-09T08:50:15.081Z,1009.7
2017-10-09T08:51:17.503Z,1009.7
2017-10-09T08:52:19.933Z,1009.7
2017-10-09T08:53:22.367Z,1009.7
2017-10-09T08:54:24.789Z,1009.6
2017-10-09T08:55:27.227Z,1009.7
2017-10-09T08:56:29.668Z,1009.7
2017-10-09T08:57:32.104Z,1009.7
2017-10-09T08:58:34.538Z,1009.7
2017-10-09T08:59:36.961Z,1009.7
2017-10-09T09:00:39.390Z,1009.7
2017-10-09T09:01:41.831Z,1009.7
2017-10-09T09:02:44.251Z,1009.6
2017-10-09T09:03:46.680Z,1009.6
2017-10-09T09:04:49.113Z,1009.7
2017-10-09T09:05:53.678Z,1009.7
2017-10-09T09:06:56.118Z,1009.6
2017-10-09T09:07:58.553Z,1009.6
2017-10-09T09:09:00.966Z,1009.6
2017-10-09T09:10:03.775Z,1009.6
2017-10-09T09:11:06.203Z,1009.7
2017-10-09T09:12:08.628Z,1009.6
2017-10-09T09:13:11.070Z,1009.6
2017-10-09T09:14:13.503Z,1009.7
2017-10-09T09:15:15.952Z,1009.6
2017-10-09T09:16:18.387Z,1009.6
2017-10-09T09:17:20.822Z,1009.6
2017-10-09T09:18:23.248Z,1009.7
2017-10-09T09:19:25.684Z,1009.6
2017-10-09T09:20:28.105Z,1009.7
2017-10-09T09:21:30.547Z,1009.6
2017-10-09T09:22:32.982Z,1009.6
2017-10-09T09:23:35.407Z,1009.7
2017-10-09T09:24:37.840Z,1009.6
2017-10-09T09:25:40.282Z,1009.7
2017-10-09T09:26:42.710Z,1009.7
2017-10-09T09:27:45.146Z,1009.7
2017-10-09T09:28:47.578Z,1009.7
2017-10-09T09:29:50.354Z,1009.7
2017-10-09T09:30:52.785Z,1009.7
2017-10-09T09:31:55.228Z,1009.7
2017-10-09T09:32:57.683Z,1009.8
2017-10-09T09:34:00.121Z,1009.7
2017-10-09T09:35:02.559Z,1009.7
2017-10-09T09:36:04.997Z,1009.6
2017-10-09T09:37:07.431Z,1009.7
2017-10-09T09:38:10.212Z,1009.7
2017-10-09T09:39:12.637Z,1009.6
2017-10-09T09:40:15.059Z,1009.6
2017-10-09T09:41:17.489Z,1009.5
2017-10-09T09:42:19.919Z,1009.6
2017-10-09T09:43:22.338Z,1009.6
2017-10-09T09:44:24.787Z,1009.5
2017-10-09T09:45:27.220Z,1009.5
2017-10-09T09:46:29.642Z,1009.5
2017-10-09T09:47:32.083Z,1009.5
2017-10-09T09:48:34.513Z,1009.5
2017-10-09T09:49:36.949Z,1009.5
2017-10-09T09:50:39.385Z,1009.4
2017-10-09T09:51:41.811Z,1009.4
2017-10-09T09:52:44.242Z,1009.5
2017-10-09T09:53:46.685Z,1009.6
2017-10-09T09:54:49.454Z,1009.5
2017-10-09T09:55:51.880Z,1009.5
2017-10-09T09:56:54.310Z,1009.5
2017-10-09T09:57:56.739Z,1009.6
2017-10-09T09:58:59.166Z,1009.6
2017-10-09T10:00:01.601Z,1009.6
2017-10-09T10:01:04.046Z,1009.6
2017-10-09T10:02:06.480Z,1009.6
2017-10-09T10:03:08.913Z,1009.6
2017-10-09T10:04:11.357Z,1009.7
2017-10-09T10:05:13.797Z,1009.7
2017-10-09T10:06:16.229Z,1009.7
2017-10-09T10:07:18.665Z,1009.8
2017-10-09T10:08:21.083Z,1009.7
2017-10-09T10:09:23.911Z,1009.7
2017-10-09T10:10:26.344Z,1009.7
2017-10-09T10:11:29.139Z,1009.7
2017-10-09T10:12:31.566Z,1009.7
2017-10-09T10:13:33.992Z,1009.7
2017-10-09T10:14:36.418Z,1009.7
2017-10-09T10:15:38.869Z,1009.7
2017-10-09T10:16:41.634Z,1009.7
2017-10-09T10:17:44.068Z,1009.7
2017-10-09T10:18:46.841Z,1009.6
2017-10-09T10:19:49.273Z,1009.6
2017-10-09T10:20:51.709Z,1009.7
2017-10-09T10:21:54.516Z,1009.5
2017-10-09T10:22:56.938Z,1009.5
2017-10-09T10:23:59.372Z,1009.6
2017-10-09T10:25:01.809Z,1009.6
2017-10-09T10:26:04.579Z,1009.6
2017-10-09T10:27:07.011Z,1009.6
2017-10-09T10:28:09.443Z,1009.6
2017-10-09T10:29:11.882Z,1009.6
2017-10-09T10:30:14.306Z,1009.5
2017-10-09T10:31:16.736Z,1009.6
2017-10-09T10:32:19.166Z,1009.6
2017-10-09T10:33:21.938Z,1009.6
2017-10-09T10:34:24.715Z,1009.6
2017-10-09T10:35:27.152Z,1009.5
2017-10-09T10:36:29.571Z,1009.5
2017-10-09T10:37:32.008Z,1009.5
2017-10-09T10:38:34.440Z,1009.5
2017-10-09T10:39:36.874Z,1009.5
2017-10-09T10:40:39.297Z,1009.5
2017-10-09T10:41:41.727Z,1009.5
2017-10-09T10:42:44.150Z,1009.5
2017-10-09T10:43:46.924Z,1009.5
2017-10-09T10:44:49.350Z,1009.5
2017-10-09T10:45:51.791Z,1009.5
2017-10-09T10:46:54.218Z,1009.5
2017-10-09T10:47:56.657Z,1009.5
2017-10-09T10:48:59.089Z,1009.5
2017-10-09T10:50:01.538Z,1009.5
2017-10-09T10:51:03.963Z,1009.5
2017-10-09T10:52:06.396Z,1009.5
2017-10-09T10:53:08.828Z,1009.4
2017-10-09T10:54:11.260Z,1009.5
2017-10-09T10:55:13.695Z,1009.5
2017-10-09T10:56:16.133Z,1009.4
2017-10-09T10:57:18.566Z,1009.4
2017-10-09T10:58:21.005Z,1009.4
2017-10-09T10:59:23.428Z,1009.5
2017-10-09T11:00:25.867Z,1009.5
2017-10-09T11:01:28.289Z,1009.5
2017-10-09T11:02:31.067Z,1009.4
2017-10-09T11:03:33.497Z,1009.4
2017-10-09T11:04:35.924Z,1009.4
2017-10-09T11:05:38.357Z,1009.4
2017-10-09T11:06:40.792Z,1009.4
2017-10-09T11:07:43.214Z,1009.4
2017-10-09T11:08:45.650Z,1009.4
2017-10-09T11:09:48.086Z,1009.3
2017-10-09T11:10:50.520Z,1009.4
2017-10-09T11:11:52.943Z,1009.3
2017-10-09T11:12:55.380Z,1009.3
2017-10-09T11:13:57.803Z,1009.3
2017-10-09T11:15:00.254Z,1009.3
2017-10-09T11:16:03.020Z,1009.3
2017-10-09T11:17:05.464Z,1009.3
2017-10-09T11:18:07.901Z,1009.3
2017-10-09T11:19:10.336Z,1009.3
2017-10-09T11:20:12.772Z,1009.2
2017-10-09T11:21:15.205Z,1009.3
2017-10-09T11:22:17.633Z,1009.3
2017-10-09T11:23:20.067Z,1009.3
2017-10-09T11:24:22.512Z,1009.3
2017-10-09T11:25:24.954Z,1009.2
2017-10-09T11:26:27.388Z,1009.2
2017-10-09T11:27:29.822Z,1009.2
2017-10-09T11:28:32.599Z,1009.3
2017-10-09T11:29:35.029Z,1009.3
2017-10-09T11:30:37.465Z,1009.3
2017-10-09T11:31:39.890Z,1009.2
2017-10-09T11:32:42.321Z,1009.2
2017-10-09T11:33:44.773Z,1009.2
2017-10-09T11:34:47.209Z,1009.2
2017-10-09T11:35:49.648Z,1009.2
2017-10-09T11:36:52.079Z,1009.2
2017-10-09T11:37:54.515Z,1009.2
2017-10-09T11:38:56.966Z,1009.2
2017-10-09T11:39:59.405Z,1009.2
2017-10-09T11:41:01.831Z,1009.2
2017-10-09T11:42:04.270Z,1009.2
2017-10-09T11:43:06.714Z,1009.2
2017-10-09T11:44:09.151Z,1009.2
2017-10-09T11:45:11.934Z,1009.2
2017-10-09T11:46:14.357Z,1009.2
2017-10-09T11:47:16.793Z,1009.2
2017-10-09T11:48:19.242Z,1009.2
2017-10-09T11:49:21.673Z,1009.2
2017-10-09T11:50:24.097Z,1009.2
2017-10-09T11:51:26.531Z,1009.2
2017-10-09T11:52:28.972Z,1009.2
2017-10-09T11:53:31.407Z,1009.2
2017-10-09T11:54:33.858Z,1009.2
2017-10-09T11:55:36.293Z,1009.2
2017-10-09T11:56:38.722Z,1009.2
2017-10-09T11:57:41.172Z,1009.2
2017-10-09T11:58:43.605Z,1009.2
2017-10-09T11:59:46.031Z,1009.2
2017-10-09T12:00:48.811Z,1009.2
2017-10-09T12:01:51.233Z,1009.3
2017-10-09T12:02:53.671Z,1009.2
2017-10-09T12:03:56.109Z,1009.3
2017-10-09T12:04:58.544Z,1009.3
2017-10-09T12:06:00.973Z,1009.3
2017-10-09T12:07:03.414Z,1009.3
2017-10-09T12:08:06.180Z,1009.2
2017-10-09T12:09:08.610Z,1009.2
2017-10-09T12:10:11.043Z,1009.2
2017-10-09T12:11:13.478Z,1009.2
2017-10-09T12:12:15.921Z,1009.2
2017-10-09T12:13:18.356Z,1009.2
2017-10-09T12:14:20.783Z,1009.1
2017-10-09T12:15:23.218Z,1009.1
2017-10-09T12:16:25.989Z,1009.1
2017-10-09T12:17:28.421Z,1009.1
2017-10-09T12:18:30.852Z,1009
2017-10-09T12:19:33.277Z,1009
2017-10-09T12:20:35.702Z,1009
2017-10-09T12:21:38.493Z,1009
2017-10-09T12:22:40.926Z,1009
2017-10-09T12:23:43.699Z,1009.1
2017-10-09T12:24:46.125Z,1009.1
2017-10-09T12:25:48.562Z,1009
2017-10-09T12:26:50.991Z,1009
2017-10-09T12:27:53.428Z,1009
2017-10-09T12:28:55.862Z,1009
2017-10-09T12:29:58.294Z,1009
2017-10-09T12:31:00.720Z,1009
2017-10-09T12:32:03.164Z,1008.9
2017-10-09T12:33:05.592Z,1008.9
2017-10-09T12:34:08.023Z,1008.9
2017-10-09T12:35:10.463Z,1008.9
2017-10-09T12:36:13.235Z,1009
2017-10-09T12:37:15.668Z,1009
2017-10-09T12:38:18.108Z,1009
2017-10-09T12:39:20.546Z,1008.9
2017-10-09T12:40:22.979Z,1009
2017-10-09T12:41:25.417Z,1008.8
2017-10-09T12:42:28.539Z,1008.9
2017-10-09T12:43:30.979Z,1008.9
2017-10-09T12:44:33.787Z,1008.9
2017-10-09T12:45:36.420Z,1008.8
2017-10-09T12:46:38.859Z,1008.8
2017-10-09T12:47:41.287Z,1008.8
2017-10-09T12:48:43.728Z,1008.8
2017-10-09T12:49:46.268Z,1008.7
2017-10-09T12:50:48.999Z,1008.8
2017-10-09T12:51:51.440Z,1008.7
2017-10-09T12:52:53.873Z,1008.7
2017-10-09T12:53:56.310Z,1008.6
2017-10-09T12:54:58.742Z,1008.6
2017-10-09T12:56:01.174Z,1008.6
2017-10-09T12:57:03.629Z,1008.6
2017-10-09T12:58:06.062Z,1008.6
2017-10-09T12:59:08.509Z,1008.5
2017-10-09T13:00:10.939Z,1008.5
2017-10-09T13:01:13.384Z,1008.5
2017-10-09T13:02:15.828Z,1008.5
2017-10-09T13:03:18.264Z,1008.6
2017-10-09T13:04:20.692Z,1008.5